createdAt,value
2019-01-17T00:01:48.402Z,99565.39
2019-01-17T00:04:44.733Z,99555.40
2019-01-17T00:07:26.016Z,99553.52
2019-01-17T00:10:18.539Z,99562.63
2019-01-17T00:13:08.781Z,99544.41
2019-01-17T00:16:08.004Z,99540.17
2019-01-17T00:18:54.354Z,99535.76
2019-01-17T00:21:40.163Z,99529.25
2019-01-17T00:24:36.376Z,99534.97
2019-01-17T00:27:27.403Z,99543.36
2019-01-17T00:30:26.574Z,99550.27
2019-01-17T00:33:25.995Z,99541.48
2019-01-17T00:36:09.850Z,99545.70
2019-01-17T00:39:06.002Z,99562.30
2019-01-17T00:42:00.660Z,99571.59
2019-01-17T00:44:53.967Z,99550.60
2019-01-17T00:47:46.911Z,99544.73
2019-01-17T00:50:35.891Z,99545.06
2019-01-17T00:53:31.863Z,99545.38
2019-01-17T00:56:28.232Z,99543.42
2019-01-17T00:59:17.498Z,99537.34
2019-01-17T01:02:18.859Z,99524.66
2019-01-17T01:05:07.894Z,99513.34
2019-01-17T01:08:01.084Z,99507.30
2019-01-17T01:10:50.742Z,99511.31
2019-01-17T01:13:39.884Z,99509.58
2019-01-17T01:16:42.465Z,99509.19
2019-01-17T01:19:50.869Z,99508.46
2019-01-17T01:22:45.047Z,99508.54
2019-01-17T01:25:41.087Z,99504.78
2019-01-17T01:28:26.379Z,99501.53
2019-01-17T01:31:03.223Z,99487.03
2019-01-17T01:33:59.319Z,99477.34
2019-01-17T01:36:48.467Z,99487.11
2019-01-17T01:39:47.870Z,99470.33
2019-01-17T01:42:36.679Z,99469.27
2019-01-17T01:45:33.348Z,99472.92
2019-01-17T01:48:29.366Z,99469.16
2019-01-17T01:51:32.707Z,99475.85
2019-01-17T01:54:03.925Z,99476.89
2019-01-17T01:56:36.232Z,99475.77
2019-01-17T01:59:07.492Z,99478.95
2019-01-17T02:01:38.711Z,99463.86
2019-01-17T02:04:09.908Z,99470.12
2019-01-17T02:06:41.098Z,99472.72
2019-01-17T02:09:12.252Z,99461.00
2019-01-17T02:11:43.466Z,99465.81
2019-01-17T02:14:14.855Z,99467.11
2019-01-17T02:16:46.037Z,99459.69
2019-01-17T02:19:17.243Z,99471.92
2019-01-17T02:21:48.443Z,99481.84
2019-01-17T02:24:19.633Z,99482.61
2019-01-17T02:26:50.859Z,99470.45
2019-01-17T02:29:22.058Z,99472.19
2019-01-17T02:31:54.895Z,99485.28
2019-01-17T02:34:26.155Z,99479.56
2019-01-17T02:36:57.330Z,99481.70
2019-01-17T02:39:28.642Z,99480.73
2019-01-17T02:41:59.849Z,99482.03
2019-01-17T02:44:31.093Z,99477.33
2019-01-17T02:47:02.539Z,99489.52
2019-01-17T02:49:33.724Z,99470.05
2019-01-17T02:52:04.938Z,99475.83
2019-01-17T02:54:36.089Z,99472.89
2019-01-17T02:57:07.309Z,99477.34
2019-01-17T02:59:38.525Z,99472.71
2019-01-17T03:02:09.353Z,99466.27
2019-01-17T03:04:40.605Z,99461.63
2019-01-17T03:07:11.845Z,99464.38
2019-01-17T03:09:43.025Z,99462.73
2019-01-17T03:12:14.274Z,99460.96
2019-01-17T03:14:45.641Z,99464.44
2019-01-17T03:17:16.804Z,99467.11
2019-01-17T03:19:48.000Z,99472.33
2019-01-17T03:22:19.210Z,99458.89
2019-01-17T03:24:50.439Z,99462.47
2019-01-17T03:27:21.661Z,99464.69
2019-01-17T03:29:52.883Z,99461.31
2019-01-17T03:32:24.127Z,99459.27
2019-01-17T03:34:55.291Z,99459.67
2019-01-17T03:37:26.651Z,99460.11
2019-01-17T03:39:57.853Z,99462.21
2019-01-17T03:42:29.023Z,99455.70
2019-01-17T03:45:00.208Z,99463.12
2019-01-17T03:47:31.342Z,99467.93
2019-01-17T03:50:02.532Z,99473.69
2019-01-17T03:52:33.691Z,99464.42
2019-01-17T03:55:05.342Z,99464.02
2019-01-17T03:57:36.472Z,99474.91
2019-01-17T04:00:10.561Z,99478.36
2019-01-17T04:02:41.778Z,99483.57
2019-01-17T04:05:13.028Z,99479.30
2019-01-17T04:07:44.186Z,99479.80
2019-01-17T04:10:16.020Z,99482.55
2019-01-17T04:12:47.229Z,99476.53
2019-01-17T04:15:18.435Z,99475.77
2019-01-17T04:17:49.702Z,99478.88
2019-01-17T04:20:20.903Z,99478.48
2019-01-17T04:22:52.047Z,99483.32
2019-01-17T04:25:23.430Z,99476.00
2019-01-17T04:27:54.737Z,99471.59
2019-01-17T04:30:25.901Z,99473.33
2019-01-17T04:32:57.081Z,99478.21
2019-01-17T04:35:28.547Z,99483.50
2019-01-17T04:37:59.731Z,99481.79
2019-01-17T04:40:30.970Z,99485.70
2019-01-17T04:43:02.160Z,99488.20
2019-01-17T04:45:33.374Z,99504.35
2019-01-17T04:48:04.596Z,99503.45
2019-01-17T04:50:35.822Z,99505.16
2019-01-17T04:53:07.033Z,99504.75
2019-01-17T04:55:38.240Z,99492.22
2019-01-17T04:58:09.417Z,99504.02
2019-01-17T05:00:40.875Z,99503.69
2019-01-17T05:03:12.074Z,99527.96
2019-01-17T05:05:43.192Z,99533.11
2019-01-17T05:08:15.437Z,99499.78
2019-01-17T05:10:46.526Z,99512.82
2019-01-17T05:13:17.685Z,99500.58
2019-01-17T05:15:48.920Z,99508.47
2019-01-17T05:18:20.106Z,99502.39
2019-01-17T05:20:51.272Z,99508.55
2019-01-17T05:23:22.421Z,99502.02
2019-01-17T05:25:53.609Z,99526.98
2019-01-17T05:28:24.738Z,99520.14
2019-01-17T05:30:56.069Z,99508.00
2019-01-17T05:33:27.272Z,99525.21
2019-01-17T05:35:58.479Z,99514.38
2019-01-17T05:38:29.771Z,99524.70
2019-01-17T05:41:01.152Z,99532.13
2019-01-17T05:43:32.354Z,99525.61
2019-01-17T05:46:03.580Z,99530.83
2019-01-17T05:48:34.889Z,99529.45
2019-01-17T05:51:06.187Z,99531.56
2019-01-17T05:53:37.575Z,99528.95
2019-01-17T05:56:08.731Z,99523.73
2019-01-17T05:58:39.997Z,99528.63
2019-01-17T06:01:11.208Z,99529.05
2019-01-17T06:03:42.602Z,99526.92
2019-01-17T06:06:14.009Z,99522.61
2019-01-17T06:08:45.222Z,99512.64
2019-01-17T06:11:16.491Z,99518.77
2019-01-17T06:13:47.743Z,99518.69
2019-01-17T06:16:19.005Z,99506.89
2019-01-17T06:18:50.230Z,99520.33
2019-01-17T06:21:21.539Z,99529.78
2019-01-17T06:23:52.745Z,99532.72
2019-01-17T06:26:23.987Z,99534.28
2019-01-17T06:28:55.245Z,99538.59
2019-01-17T06:31:26.412Z,99542.17
2019-01-17T06:33:57.644Z,99539.97
2019-01-17T06:36:28.857Z,99546.92
2019-01-17T06:39:00.054Z,99538.66
2019-01-17T06:41:31.268Z,99536.97
2019-01-17T06:44:02.548Z,99531.42
2019-01-17T06:46:33.756Z,99532.33
2019-01-17T06:49:04.941Z,99550.17
2019-01-17T06:51:36.133Z,99554.95
2019-01-17T06:54:07.321Z,99550.17
2019-01-17T06:56:38.602Z,99546.59
2019-01-17T06:59:09.898Z,99550.00
2019-01-17T07:01:41.241Z,99549.35
2019-01-17T07:04:12.638Z,99553.19
2019-01-17T07:06:44.163Z,99557.03
2019-01-17T07:09:15.364Z,99555.26
2019-01-17T07:11:46.694Z,99554.75
2019-01-17T07:14:17.906Z,99571.63
2019-01-17T07:16:49.082Z,99573.25
2019-01-17T07:19:20.230Z,99574.48
2019-01-17T07:21:51.411Z,99582.23
2019-01-17T07:24:22.556Z,99594.22
2019-01-17T07:26:53.741Z,99582.81
2019-01-17T07:29:25.070Z,99591.75
2019-01-17T07:31:56.276Z,99597.41
2019-01-17T07:34:27.435Z,99600.41
2019-01-17T07:36:58.582Z,99603.84
2019-01-17T07:39:29.716Z,99605.55
2019-01-17T07:42:01.107Z,99602.94
2019-01-17T07:44:32.346Z,99604.97
2019-01-17T07:47:03.612Z,99596.83
2019-01-17T07:49:34.800Z,99592.84
2019-01-17T07:52:06.079Z,99588.86
2019-01-17T07:54:37.265Z,99603.27
2019-01-17T07:57:08.546Z,99603.19
2019-01-17T07:59:39.729Z,99606.27
2019-01-17T08:02:11.075Z,99598.85
2019-01-17T08:04:42.602Z,99606.27
2019-01-17T08:07:13.785Z,99612.97
2019-01-17T08:09:46.164Z,99615.47
2019-01-17T08:12:17.579Z,99609.85
2019-01-17T08:14:48.877Z,99612.46
2019-01-17T08:17:20.066Z,99599.50
2019-01-17T08:19:51.412Z,99606.92
2019-01-17T08:22:22.624Z,99607.32
2019-01-17T08:24:53.903Z,99608.30
2019-01-17T08:27:25.357Z,99606.67
2019-01-17T08:29:56.562Z,99610.73
2019-01-17T08:32:27.887Z,99606.09
2019-01-17T08:34:59.126Z,99602.77
2019-01-17T08:37:30.479Z,99596.78
2019-01-17T08:40:01.919Z,99610.41
2019-01-17T08:42:33.701Z,99601.67
2019-01-17T08:45:05.615Z,99616.92
2019-01-17T08:47:36.967Z,99606.09
2019-01-17T08:50:09.338Z,99613.55
2019-01-17T08:52:40.652Z,99605.41
2019-01-17T08:55:11.966Z,99609.49
2019-01-17T08:57:43.165Z,99591.38
2019-01-17T09:00:19.603Z,99597.72
2019-01-17T09:02:50.899Z,99608.00
2019-01-17T09:05:22.225Z,99620.02
2019-01-17T09:07:53.398Z,99625.48
2019-01-17T09:10:27.153Z,99620.41
2019-01-17T09:12:59.467Z,99626.27
2019-01-17T09:15:32.934Z,99630.00
2019-01-17T09:18:04.345Z,99623.98
2019-01-17T09:20:38.740Z,99613.69
2019-01-17T09:23:09.986Z,99625.16
2019-01-17T09:25:41.310Z,99625.81
2019-01-17T09:28:12.516Z,99632.87
2019-01-17T09:30:43.652Z,99628.55
2019-01-17T09:33:14.947Z,99628.95
2019-01-17T09:35:46.155Z,99632.14
2019-01-17T09:38:17.307Z,99622.20
2019-01-17T09:40:49.716Z,99625.62
2019-01-17T09:43:20.970Z,99626.34
2019-01-17T09:45:52.231Z,99624.57
2019-01-17T09:48:23.425Z,99637.36
2019-01-17T09:50:54.612Z,99636.95
2019-01-17T09:53:25.827Z,99638.00
2019-01-17T09:55:57.140Z,99631.95
2019-01-17T09:58:28.441Z,99629.84
2019-01-17T10:00:59.738Z,99638.47
2019-01-17T10:03:31.037Z,99627.96
2019-01-17T10:06:02.282Z,99620.20
2019-01-17T10:08:33.461Z,99621.61
2019-01-17T10:11:04.814Z,99612.05
2019-01-17T10:13:35.919Z,99610.73
2019-01-17T10:16:25.184Z,99605.69
2019-01-17T10:19:25.781Z,99609.67
2019-01-17T10:22:32.951Z,99607.20
2019-01-17T10:25:48.659Z,99609.95
2019-01-17T10:28:53.018Z,99622.66
2019-01-17T10:31:43.818Z,99609.21
2019-01-17T10:34:37.448Z,99618.75
2019-01-17T10:37:39.778Z,99615.60
2019-01-17T10:41:00.666Z,99618.61
2019-01-17T10:44:00.018Z,99618.14
2019-01-17T10:47:05.066Z,99619.67
2019-01-17T10:50:14.981Z,99613.02
2019-01-17T10:53:22.911Z,99614.84
2019-01-17T10:56:27.932Z,99612.57
2019-01-17T10:59:30.396Z,99641.20
2019-01-17T11:02:25.804Z,99611.27
2019-01-17T11:05:59.407Z,99601.47
2019-01-17T11:09:18.955Z,99598.73
2019-01-17T11:12:22.740Z,99590.37
2019-01-17T11:15:29.877Z,99594.66
2019-01-17T11:18:49.893Z,99587.06
2019-01-17T11:22:14.544Z,99585.62
2019-01-17T11:25:29.187Z,99574.63
2019-01-17T11:28:37.496Z,99577.54
2019-01-17T11:31:36.529Z,99568.70
2019-01-17T11:34:38.619Z,99564.63
2019-01-17T11:38:21.712Z,99555.72
2019-01-17T11:42:01.691Z,99555.03
2019-01-17T11:44:56.643Z,99546.48
2019-01-17T11:47:38.844Z,99547.11
2019-01-17T11:51:05.173Z,99548.70
2019-01-17T11:54:11.564Z,99540.52
2019-01-17T11:57:14.166Z,99527.70
2019-01-17T12:00:17.725Z,99520.77
2019-01-17T12:03:21.645Z,99524.12
2019-01-17T12:05:52.845Z,99524.81
2019-01-17T12:08:24.063Z,99525.14
2019-01-17T12:10:55.198Z,99522.80
2019-01-17T12:13:27.340Z,99516.05
2019-01-17T12:15:58.533Z,99501.49
2019-01-17T12:18:29.741Z,99500.86
2019-01-17T12:21:00.948Z,99489.30
2019-01-17T12:23:32.120Z,99493.95
2019-01-17T12:26:03.348Z,99481.41
2019-01-17T12:28:34.508Z,99473.11
2019-01-17T12:31:05.616Z,99473.67
2019-01-17T12:33:36.893Z,99467.59
2019-01-17T12:36:08.054Z,99477.70
2019-01-17T12:38:39.224Z,99471.61
2019-01-17T12:41:10.422Z,99471.11
2019-01-17T12:43:41.555Z,99475.94
2019-01-17T12:46:12.750Z,99463.81
2019-01-17T12:48:43.955Z,99469.45
2019-01-17T12:51:15.155Z,99454.72
2019-01-17T12:53:46.383Z,99488.05
2019-01-17T12:56:17.585Z,99458.98
2019-01-17T12:58:48.788Z,99451.11
2019-01-17T13:01:19.963Z,99443.21
2019-01-17T13:03:51.152Z,99443.05
2019-01-17T13:06:22.321Z,99457.33
2019-01-17T13:08:53.539Z,99447.45
2019-01-17T13:11:24.717Z,99439.27
2019-01-17T13:13:55.965Z,99446.48
2019-01-17T13:16:27.143Z,99441.44
2019-01-17T13:18:58.357Z,99447.13
2019-01-17T13:21:29.508Z,99441.84
2019-01-17T13:24:00.715Z,99441.50
2019-01-17T13:26:31.929Z,99427.06
2019-01-17T13:29:03.083Z,99430.13
2019-01-17T13:31:34.324Z,99437.05
2019-01-17T13:34:05.746Z,99417.56
2019-01-17T13:36:40.529Z,99419.94
2019-01-17T13:39:09.879Z,99422.33
2019-01-17T13:41:41.147Z,99420.20
2019-01-17T13:44:12.421Z,99415.64
2019-01-17T13:46:43.736Z,99413.89
2019-01-17T13:49:15.030Z,99426.50
2019-01-17T13:51:46.431Z,99427.55
2019-01-17T13:54:17.738Z,99411.52
2019-01-17T13:56:50.283Z,99411.66
2019-01-17T13:59:21.629Z,99407.91
2019-01-17T14:01:53.141Z,99406.72
2019-01-17T14:04:24.707Z,99413.86
2019-01-17T14:06:56.004Z,99406.56
2019-01-17T14:09:27.244Z,99401.63
2019-01-17T14:11:58.494Z,99392.69
2019-01-17T14:14:29.673Z,99385.09
2019-01-17T14:17:01.898Z,99391.03
2019-01-17T14:19:33.137Z,99393.41
2019-01-17T14:22:04.356Z,99392.23
2019-01-17T14:24:35.529Z,99388.83
2019-01-17T14:27:06.751Z,99391.99
2019-01-17T14:29:37.907Z,99382.07
2019-01-17T14:32:09.095Z,99377.70
2019-01-17T14:34:40.254Z,99368.55
2019-01-17T14:37:11.470Z,99363.75
2019-01-17T14:39:42.815Z,99363.31
2019-01-17T14:42:14.112Z,99362.36
2019-01-17T14:44:45.660Z,99361.84
2019-01-17T14:47:17.042Z,99360.13
2019-01-17T14:49:48.330Z,99356.91
2019-01-17T14:52:19.854Z,99365.12
2019-01-17T14:54:51.130Z,99357.12
2019-01-17T14:57:22.491Z,99361.05
2019-01-17T14:59:53.798Z,99357.12
2019-01-17T15:02:25.044Z,99365.47
2019-01-17T15:04:56.307Z,99365.47
2019-01-17T15:07:27.445Z,99361.91
2019-01-17T15:09:58.629Z,99368.45
2019-01-17T15:12:29.827Z,99365.36
2019-01-17T15:15:01.121Z,99381.06
2019-01-17T15:17:32.520Z,99382.48
2019-01-17T15:20:04.145Z,99386.85
2019-01-17T15:22:35.587Z,99391.98
2019-01-17T15:25:07.039Z,99403.91
2019-01-17T15:27:38.214Z,99411.45
2019-01-17T15:30:13.223Z,99416.54
2019-01-17T15:32:44.361Z,99415.69
2019-01-17T15:35:15.523Z,99419.48
2019-01-17T15:37:46.730Z,99425.41
2019-01-17T15:40:26.433Z,99428.88
2019-01-17T15:42:58.092Z,99416.30
2019-01-17T15:45:29.327Z,99419.98
2019-01-17T15:48:00.489Z,99431.17
2019-01-17T15:50:31.770Z,99422.12
2019-01-17T15:53:02.973Z,99422.08
2019-01-17T15:55:34.128Z,99422.36
2019-01-17T15:58:05.473Z,99434.80
2019-01-17T16:00:36.655Z,99440.68
2019-01-17T16:03:07.983Z,99443.81
2019-01-17T16:05:39.169Z,99450.18
2019-01-17T16:08:10.407Z,99448.08
2019-01-17T16:10:41.664Z,99463.47
2019-01-17T16:13:12.977Z,99464.21
2019-01-17T16:15:44.179Z,99474.92
2019-01-17T16:18:15.512Z,99472.00
2019-01-17T16:20:46.708Z,99480.85
2019-01-17T16:23:18.077Z,99487.33
2019-01-17T16:25:49.977Z,99488.40
2019-01-17T16:28:21.358Z,99493.91
2019-01-17T16:30:52.619Z,99491.89
2019-01-17T16:33:24.159Z,99496.48
2019-01-17T16:35:56.491Z,99496.47
2019-01-17T16:38:28.157Z,99497.23
2019-01-17T16:41:02.436Z,99503.75
2019-01-17T16:43:33.920Z,99500.08
2019-01-17T16:46:05.360Z,99510.30
2019-01-17T16:48:36.663Z,99523.22
2019-01-17T16:51:07.873Z,99524.79
2019-01-17T16:53:39.091Z,99509.84
2019-01-17T16:56:10.364Z,99517.51
2019-01-17T16:58:41.740Z,99529.20
2019-01-17T17:01:13.285Z,99531.53
2019-01-17T17:03:44.772Z,99531.53
2019-01-17T17:06:16.094Z,99539.05
2019-01-17T17:08:47.666Z,99532.05
2019-01-17T17:11:18.933Z,99540.95
2019-01-17T17:13:50.188Z,99542.64
2019-01-17T17:16:22.711Z,99559.11
2019-01-17T17:18:54.332Z,99555.83
2019-01-17T17:21:25.707Z,99550.94
2019-01-17T17:23:56.918Z,99560.92
2019-01-17T17:26:28.308Z,99570.33
2019-01-17T17:28:59.543Z,99554.77
2019-01-17T17:31:31.032Z,99588.27
2019-01-17T17:34:02.278Z,99592.98
2019-01-17T17:36:33.817Z,99592.98
2019-01-17T17:39:07.525Z,99590.95
2019-01-17T17:41:38.752Z,99594.84
2019-01-17T17:44:10.016Z,99596.66
2019-01-17T17:46:41.596Z,99596.27
2019-01-17T17:49:12.830Z,99603.26
2019-01-17T17:51:44.044Z,99600.03
2019-01-17T17:54:15.650Z,99608.03
2019-01-17T17:56:46.972Z,99612.61
2019-01-17T17:59:18.492Z,99625.17
2019-01-17T18:04:45.238Z,99638.72
2019-01-17T18:07:16.837Z,99638.81
2019-01-17T18:09:48.512Z,99656.88
2019-01-17T18:12:20.055Z,99656.88
2019-01-17T18:14:51.517Z,99664.95
2019-01-17T18:17:23.096Z,99681.30
2019-01-17T18:19:54.673Z,99662.27
2019-01-17T18:22:26.004Z,99674.13
2019-01-17T18:24:57.202Z,99677.93
2019-01-17T18:27:28.561Z,99677.93
2019-01-17T18:29:59.866Z,99692.59
2019-01-17T18:32:32.844Z,99697.20
2019-01-17T18:35:04.739Z,99698.98
2019-01-17T18:37:36.075Z,99701.67
2019-01-17T18:40:09.570Z,99706.86
2019-01-17T18:42:40.788Z,99706.47
2019-01-17T18:45:13.890Z,99714.34
2019-01-17T18:47:46.174Z,99724.63
2019-01-17T18:50:20.002Z,99737.30
2019-01-17T18:52:51.557Z,99725.11
2019-01-17T18:55:23.020Z,99737.69
2019-01-17T18:57:54.388Z,99744.56
2019-01-17T19:00:30.638Z,99744.17
2019-01-17T19:03:01.999Z,99753.87
2019-01-17T19:05:33.198Z,99766.05
2019-01-17T19:08:04.451Z,99766.05
2019-01-17T19:10:35.730Z,99764.93
2019-01-17T19:13:07.020Z,99764.12
2019-01-17T19:15:38.335Z,99772.03
2019-01-17T19:18:09.585Z,99776.22
2019-01-17T19:20:40.860Z,99772.42
2019-01-17T19:23:12.093Z,99772.42
2019-01-17T19:25:43.307Z,99768.22
2019-01-17T19:28:14.498Z,99789.29
2019-01-17T19:30:45.735Z,99792.66
2019-01-17T19:33:17.174Z,99790.06
2019-01-17T19:35:48.455Z,99797.17
2019-01-17T19:38:19.774Z,99792.18
2019-01-17T19:40:51.135Z,99807.73
2019-01-17T19:43:22.404Z,99806.86
2019-01-17T19:45:53.720Z,99815.81
2019-01-17T19:48:24.920Z,99834.20
2019-01-17T19:50:56.150Z,99833.39
2019-01-17T19:53:27.393Z,99823.73
2019-01-17T19:55:58.623Z,99828.61
2019-01-17T19:58:29.944Z,99833.70
2019-01-17T20:01:01.235Z,99838.18
2019-01-17T20:03:32.388Z,99846.84
2019-01-17T20:06:03.615Z,99844.64
2019-01-17T20:08:34.898Z,99855.13
2019-01-17T20:11:06.324Z,99861.80
2019-01-17T20:13:37.650Z,99877.23
2019-01-17T20:16:08.938Z,99871.17
2019-01-17T20:18:40.475Z,99871.17
2019-01-17T20:21:11.757Z,99896.69
2019-01-17T20:23:43.017Z,99882.33
2019-01-17T20:26:14.676Z,99891.63
2019-01-17T20:28:50.993Z,99900.71
2019-01-17T20:31:22.242Z,99895.20
2019-01-17T20:33:53.997Z,99894.13
2019-01-17T20:36:31.302Z,99891.53
2019-01-17T20:39:04.818Z,99898.22
2019-01-17T20:41:42.353Z,99897.54
2019-01-17T20:44:25.066Z,99906.33
2019-01-17T20:46:57.204Z,99900.72
2019-01-17T20:49:28.537Z,99911.91
2019-01-17T20:52:00.070Z,99902.92
2019-01-17T20:55:11.986Z,99916.09
2019-01-17T20:58:17.982Z,99913.35
2019-01-17T21:01:30.471Z,99924.25
2019-01-17T21:04:14.185Z,99935.00
2019-01-17T21:07:08.329Z,99935.00
2019-01-17T21:09:54.077Z,99939.95
2019-01-17T21:12:33.887Z,99939.95
2019-01-17T21:15:06.487Z,99944.13
2019-01-17T21:17:37.768Z,99937.66
2019-01-17T21:20:09.854Z,99945.23
2019-01-17T21:22:41.241Z,99954.51
2019-01-17T21:25:14.663Z,99946.73
2019-01-17T21:27:45.928Z,99968.38
2019-01-17T21:30:54.470Z,99970.98
2019-01-17T21:33:25.747Z,99970.79
2019-01-17T21:36:10.370Z,99983.76
2019-01-17T21:38:42.113Z,99975.59
2019-01-17T21:41:35.994Z,99964.11
2019-01-17T21:44:00.688Z,99964.11
2019-01-17T21:46:34.557Z,100013.67
2019-01-17T21:49:08.807Z,100013.67
2019-01-17T21:52:01.852Z,99986.35
2019-01-17T21:54:33.204Z,100008.58
2019-01-17T21:57:04.456Z,99999.30
2019-01-17T21:59:40.473Z,99994.59
2019-01-17T22:02:11.768Z,100000.69
2019-01-17T22:04:43.044Z,100013.30
2019-01-17T22:07:14.224Z,100013.30
2019-01-17T22:09:45.610Z,100015.88
2019-01-17T22:12:18.007Z,100020.33
2019-01-17T22:14:49.510Z,100020.33
2019-01-17T22:17:20.714Z,100043.09
2019-01-17T22:19:51.969Z,100043.09
2019-01-17T22:22:23.412Z,100049.97
2019-01-17T22:24:54.716Z,100044.78
2019-01-17T22:27:25.897Z,100069.41
2019-01-17T22:29:57.330Z,100070.31
2019-01-17T22:32:28.619Z,100058.23
2019-01-17T22:34:59.950Z,100053.75
2019-01-17T22:37:31.180Z,100057.36
2019-01-17T22:40:02.437Z,100060.98
2019-01-17T22:42:33.699Z,100068.48
2019-01-17T22:45:05.379Z,100076.89
2019-01-17T22:47:36.650Z,100078.58
2019-01-17T22:50:10.046Z,100081.09
2019-01-17T22:52:41.262Z,100083.12
2019-01-17T22:55:12.550Z,100091.73
2019-01-17T22:57:43.810Z,100097.13
2019-01-17T23:00:19.781Z,100097.13
2019-01-17T23:02:52.794Z,100111.50
2019-01-17T23:05:24.076Z,100113.99
2019-01-17T23:07:55.336Z,100108.98
2019-01-17T23:10:26.519Z,100115.67
2019-01-17T23:12:57.822Z,100138.04
2019-01-17T23:15:29.010Z,100129.34
2019-01-17T23:18:00.344Z,100136.11
2019-01-17T23:20:31.620Z,100168.64
2019-01-17T23:23:02.916Z,100145.30
2019-01-17T23:25:34.552Z,100145.30
2019-01-17T23:28:05.887Z,100149.99
2019-01-17T23:30:38.058Z,100168.74
2019-01-17T23:33:09.264Z,100168.74
2019-01-17T23:35:40.776Z,100163.55
2019-01-17T23:38:12.112Z,100170.56
2019-01-17T23:40:43.260Z,100175.05
2019-01-17T23:43:14.422Z,100180.38
2019-01-17T23:45:45.692Z,100187.74
2019-01-17T23:48:17.953Z,100181.25
2019-01-17T23:50:49.230Z,100178.17
2019-01-17T23:53:20.457Z,100178.17
2019-01-17T23:55:51.658Z,100192.05
2019-01-17T23:58:22.971Z,100193.35
